Main page
METAR-TAF:

METAR-TAF

Airports :

Stockholm Bromma Airport

Stockholm, Sweden

latitude: 59-21N, longitude: 017-57E, elevation: 14 m

Current weather observation

The report was made 27 minutes ago, at 16:50 UTC
Wind 6 kt from the South/Southeast
Temperature 20°C
Humidity 43%
Pressure 1014 hPa
Visibility 10 km or more

METAR: ESSB 211650Z AUTO 15006KT 9999 NCD 20/07 Q1014

Time: 19:17 (17:17 UTC)

Forecast

The report was made 5 hours and 47 minutes ago, at 11:30 UTC
Forecast valid from 21 at 12 UTC to 21 at 15 UTC
Wind 5 kt from the West
Visibility 10 km or more
no clouds below 1500 m and no cumulonimbus
Becoming
from 21 at 13 UTC to 21 at 15 UTC
Wind 12 kt from the South

TAF: ESSB 211130Z 2112/2115 26005KT CAVOK BECMG 2113/2115 17012KT

Weather observations and forecasts of more than 4000 airports (METAR and TAF reports).

The available stations are represented by yellow and red dots on the map.

Hover mouse over dot to see the name of the station.

Then click to see weather observations and forecasts.

To change the map : click on the green buttons with a black cross to zoom in, on the green button with a dash to zoom out, or on the green arrows for adjacent maps.


METAR-TAF: